createdAt,value
2016-12-01T00:00:05.105Z,1019.05
2016-12-01T00:01:19.693Z,1019.01
2016-12-01T00:02:33.576Z,1019.05
2016-12-01T00:03:47.881Z,1019
2016-12-01T00:05:02.413Z,1019.05
2016-12-01T00:06:16.332Z,1019.06
2016-12-01T00:07:30.589Z,1019.01
2016-12-01T00:08:45.497Z,1019
2016-12-01T00:09:59.939Z,1018.96
2016-12-01T00:11:14.496Z,1018.98
2016-12-01T00:12:28.289Z,1018.96
2016-12-01T00:13:44.980Z,1018.96
2016-12-01T00:14:58.827Z,1018.96
2016-12-01T00:16:14.280Z,1018.94
2016-12-01T00:17:29.635Z,1018.9
2016-12-01T00:18:44.536Z,1018.92
2016-12-01T00:19:58.573Z,1018.95
2016-12-01T00:21:13.021Z,1018.88
2016-12-01T00:22:27.799Z,1018.85
2016-12-01T00:23:42.468Z,1018.87
2016-12-01T00:25:11.651Z,1018.81
2016-12-01T00:26:25.590Z,1018.76
2016-12-01T00:27:40.126Z,1018.72
2016-12-01T00:28:55.457Z,1018.78
2016-12-01T00:30:10.487Z,1018.76
2016-12-01T00:31:24.244Z,1018.67
2016-12-01T00:32:38.143Z,1018.66
2016-12-01T00:33:52.854Z,1018.65
2016-12-01T00:35:07.531Z,1018.59
2016-12-01T00:36:22.192Z,1018.57
2016-12-01T00:37:37.314Z,1018.56
2016-12-01T00:38:51.112Z,1018.61
2016-12-01T00:40:06.052Z,1018.6
2016-12-01T00:41:20.771Z,1018.61
2016-12-01T00:42:36.058Z,1018.57
2016-12-01T00:43:50.860Z,1018.62
2016-12-01T00:45:04.782Z,1018.7
2016-12-01T00:46:19.300Z,1018.73
2016-12-01T00:47:34.160Z,1018.76
2016-12-01T00:48:48.306Z,1018.73
2016-12-01T00:50:02.685Z,1018.79
2016-12-01T00:51:17.606Z,1018.81
2016-12-01T00:52:31.578Z,1018.78
2016-12-01T00:53:46.815Z,1018.86
2016-12-01T00:55:01.303Z,1018.86
2016-12-01T00:56:15.401Z,1018.81
2016-12-01T00:57:29.291Z,1018.79
2016-12-01T00:58:43.396Z,1018.82
2016-12-01T00:59:57.576Z,1018.78
2016-12-01T01:01:11.686Z,1018.79
2016-12-01T01:02:25.953Z,1018.74
2016-12-01T01:03:39.834Z,1018.8
2016-12-01T01:04:55.231Z,1018.79
2016-12-01T01:06:09.144Z,1018.83
2016-12-01T01:07:23.177Z,1018.8
2016-12-01T01:08:37.277Z,1018.79
2016-12-01T01:09:51.765Z,1018.79
2016-12-01T01:11:06.434Z,1018.78
2016-12-01T01:12:21.071Z,1018.76
2016-12-01T01:13:35.215Z,1018.72
2016-12-01T01:14:50.065Z,1018.73
2016-12-01T01:16:04.624Z,1018.71
2016-12-01T01:17:18.780Z,1018.69
2016-12-01T01:18:34.106Z,1018.75
2016-12-01T01:19:47.963Z,1018.83
2016-12-01T01:21:02.343Z,1018.84
2016-12-01T01:22:16.664Z,1018.82
2016-12-01T01:23:31.395Z,1018.76
2016-12-01T01:24:45.611Z,1018.69
2016-12-01T01:26:00.023Z,1018.73
2016-12-01T01:27:13.832Z,1018.76
2016-12-01T01:28:28.126Z,1018.73
2016-12-01T01:29:42.331Z,1018.66
2016-12-01T01:30:58.742Z,1018.65
2016-12-01T01:32:13.084Z,1018.67
2016-12-01T01:33:27.670Z,1018.67
2016-12-01T01:34:41.638Z,1018.71
2016-12-01T01:35:55.701Z,1018.65
2016-12-01T01:37:10.266Z,1018.7
2016-12-01T01:38:24.827Z,1018.67
2016-12-01T01:39:38.868Z,1018.63
2016-12-01T01:40:52.766Z,1018.67
2016-12-01T01:42:07.224Z,1018.63
2016-12-01T01:43:21.615Z,1018.64
2016-12-01T01:44:36.567Z,1018.61
2016-12-01T01:45:50.951Z,1018.61
2016-12-01T01:47:04.915Z,1018.59
2016-12-01T01:48:18.611Z,1018.62
2016-12-01T01:49:33.345Z,1018.59
2016-12-01T01:50:48.225Z,1018.51
2016-12-01T01:52:16.879Z,1018.51
2016-12-01T01:53:31.374Z,1018.51
2016-12-01T01:54:45.664Z,1018.53
2016-12-01T01:55:59.985Z,1018.59
2016-12-01T01:58:58.303Z,1018.51
2016-12-01T02:00:12.434Z,1018.46
2016-12-01T02:01:27.010Z,1018.48
2016-12-01T02:02:40.838Z,1018.46
2016-12-01T02:03:55.339Z,1018.54
2016-12-01T02:05:09.102Z,1018.58
2016-12-01T02:06:23.419Z,1018.63
2016-12-01T02:07:52.989Z,1018.61
2016-12-01T02:09:06.931Z,1018.54
2016-12-01T02:10:20.876Z,1018.53
2016-12-01T02:11:35.148Z,1018.52
2016-12-01T02:12:49.285Z,1018.44
2016-12-01T02:14:03.656Z,1018.45
2016-12-01T02:15:17.715Z,1018.46
2016-12-01T02:16:31.666Z,1018.51
2016-12-01T02:17:45.875Z,1018.57
2016-12-01T02:19:01.546Z,1018.57
2016-12-01T02:20:15.396Z,1018.48
2016-12-01T02:21:29.377Z,1018.47
2016-12-01T02:22:44.160Z,1018.5
2016-12-01T02:23:58.141Z,1018.45
2016-12-01T02:25:13.069Z,1018.39
2016-12-01T02:26:27.193Z,1018.36
2016-12-01T02:27:41.397Z,1018.39
2016-12-01T02:28:55.655Z,1018.37
2016-12-01T02:30:10.558Z,1018.35
2016-12-01T02:31:25.176Z,1018.38
2016-12-01T02:32:39.083Z,1018.3
2016-12-01T02:33:53.340Z,1018.33
2016-12-01T02:35:08.603Z,1018.29
2016-12-01T02:36:23.054Z,1018.2
2016-12-01T02:37:37.616Z,1018.16
2016-12-01T02:38:51.386Z,1018.18
2016-12-01T02:40:05.247Z,1018.17
2016-12-01T02:41:19.798Z,1018.16
2016-12-01T02:42:33.863Z,1018.13
2016-12-01T02:43:47.816Z,1018.1
2016-12-01T02:45:01.663Z,1018.03
2016-12-01T02:50:44.183Z,1018.08
2016-12-01T02:51:58.140Z,1018.12
2016-12-01T02:53:12.736Z,1018.14
2016-12-01T02:54:26.862Z,1018.13
2016-12-01T02:55:40.632Z,1018.12
2016-12-01T02:56:54.708Z,1018.06
2016-12-01T02:58:08.894Z,1018.03
2016-12-01T02:59:23.768Z,1018.11
2016-12-01T03:00:37.674Z,1018.08
2016-12-01T03:01:51.673Z,1018.12
2016-12-01T03:03:05.804Z,1018.17
2016-12-01T03:04:19.664Z,1018.06
2016-12-01T03:05:48.883Z,1017.97
2016-12-01T03:07:02.884Z,1017.97
2016-12-01T03:08:16.835Z,1017.95
2016-12-01T03:09:30.578Z,1017.93
2016-12-01T03:10:44.486Z,1017.92
2016-12-01T03:11:58.785Z,1017.86
2016-12-01T03:13:27.856Z,1017.84
2016-12-01T03:14:41.642Z,1017.8
2016-12-01T03:15:55.557Z,1017.84
2016-12-01T03:17:09.433Z,1017.87
2016-12-01T03:18:23.323Z,1017.85
2016-12-01T03:19:37.608Z,1017.77
2016-12-01T03:20:52.000Z,1017.78
2016-12-01T03:22:05.990Z,1017.75
2016-12-01T03:23:20.029Z,1017.75
2016-12-01T03:24:33.936Z,1017.75
2016-12-01T03:25:48.116Z,1017.8
2016-12-01T03:27:02.372Z,1017.73
2016-12-01T03:28:16.356Z,1017.71
2016-12-01T03:29:30.621Z,1017.77
2016-12-01T03:30:44.685Z,1017.76
2016-12-01T03:31:59.202Z,1017.69
2016-12-01T03:33:13.468Z,1017.77
2016-12-01T03:34:27.360Z,1017.76
2016-12-01T03:35:41.292Z,1017.72
2016-12-01T03:36:55.317Z,1017.64
2016-12-01T03:38:10.011Z,1017.58
2016-12-01T03:39:24.053Z,1017.61
2016-12-01T03:40:38.366Z,1017.65
2016-12-01T03:41:52.396Z,1017.66
2016-12-01T03:43:06.621Z,1017.65
2016-12-01T03:44:20.845Z,1017.65
2016-12-01T03:45:35.119Z,1017.7
2016-12-01T03:46:48.777Z,1017.68
2016-12-01T03:48:02.544Z,1017.65
2016-12-01T03:49:16.755Z,1017.67
2016-12-01T03:50:30.765Z,1017.64
2016-12-01T03:51:44.667Z,1017.67
2016-12-01T03:52:59.083Z,1017.68
2016-12-01T03:54:13.224Z,1017.72
2016-12-01T03:55:26.980Z,1017.6
2016-12-01T03:56:40.998Z,1017.57
2016-12-01T03:57:55.031Z,1017.61
2016-12-01T03:59:08.703Z,1017.58
2016-12-01T04:00:23.314Z,1017.53
2016-12-01T04:01:37.354Z,1017.5
2016-12-01T04:02:51.474Z,1017.5
2016-12-01T04:04:05.575Z,1017.51
2016-12-01T04:05:19.397Z,1017.56
2016-12-01T04:06:33.201Z,1017.6
2016-12-01T04:07:49.477Z,1017.61
2016-12-01T04:09:03.520Z,1017.54
2016-12-01T04:10:17.555Z,1017.54
2016-12-01T04:11:31.867Z,1017.55
2016-12-01T04:12:45.887Z,1017.58
2016-12-01T04:14:00.194Z,1017.57
2016-12-01T04:15:14.511Z,1017.56
2016-12-01T04:16:28.979Z,1017.53
2016-12-01T04:17:42.788Z,1017.47
2016-12-01T04:18:56.634Z,1017.47
2016-12-01T04:20:10.814Z,1017.42
2016-12-01T04:21:24.786Z,1017.39
2016-12-01T04:22:39.120Z,1017.44
2016-12-01T04:23:52.962Z,1017.46
2016-12-01T04:25:06.831Z,1017.46
2016-12-01T04:26:21.041Z,1017.48
2016-12-01T04:27:34.972Z,1017.48
2016-12-01T04:28:49.596Z,1017.49
2016-12-01T04:30:03.321Z,1017.48
2016-12-01T04:31:17.238Z,1017.45
2016-12-01T04:32:32.130Z,1017.38
2016-12-01T04:33:47.508Z,1017.32
2016-12-01T04:35:02.143Z,1017.31
2016-12-01T04:36:16.657Z,1017.29
2016-12-01T04:37:30.915Z,1017.24
2016-12-01T04:38:44.943Z,1017.33
2016-12-01T04:39:59.689Z,1017.33
2016-12-01T04:41:14.265Z,1017.31
2016-12-01T04:42:28.508Z,1017.34
2016-12-01T04:43:43.440Z,1017.36
2016-12-01T04:44:57.356Z,1017.29
2016-12-01T04:46:11.784Z,1017.29
2016-12-01T04:47:26.659Z,1017.29
2016-12-01T04:48:40.625Z,1017.3
2016-12-01T04:49:55.733Z,1017.27
2016-12-01T04:51:10.167Z,1017.27
2016-12-01T04:52:24.772Z,1017.26
2016-12-01T04:53:39.357Z,1017.24
2016-12-01T04:54:53.136Z,1017.26
2016-12-01T04:56:07.158Z,1017.24
2016-12-01T04:57:21.326Z,1017.21
2016-12-01T04:58:35.459Z,1017.21
2016-12-01T04:59:50.197Z,1017.15
2016-12-01T05:01:04.130Z,1017.18
2016-12-01T05:02:18.916Z,1017.14
2016-12-01T05:03:32.886Z,1017.1
2016-12-01T05:04:47.116Z,1017.12
2016-12-01T05:06:01.855Z,1017.05
2016-12-01T05:07:16.080Z,1017.05
2016-12-01T05:08:30.350Z,1017.06
2016-12-01T05:09:44.744Z,1017.08
2016-12-01T05:11:13.864Z,1017.04
2016-12-01T05:12:29.160Z,1017.01
2016-12-01T05:13:43.476Z,1017.03
2016-12-01T05:15:12.157Z,1017.05
2016-12-01T05:16:26.140Z,1017.04
2016-12-01T05:17:40.863Z,1016.99
2016-12-01T05:18:54.857Z,1016.97
2016-12-01T05:20:09.197Z,1016.96
2016-12-01T05:21:23.291Z,1016.97
2016-12-01T05:22:37.096Z,1016.98
2016-12-01T05:23:51.431Z,1017.01
2016-12-01T05:25:08.798Z,1016.98
2016-12-01T05:26:23.115Z,1017.01
2016-12-01T05:27:37.332Z,1017
2016-12-01T05:28:51.090Z,1017.05
2016-12-01T05:30:05.379Z,1017.03
2016-12-01T05:32:48.981Z,1017.07
2016-12-01T05:34:03.210Z,1017.11
2016-12-01T05:35:17.355Z,1017.17
2016-12-01T05:36:31.089Z,1017.16
2016-12-01T05:37:44.939Z,1017.14
2016-12-01T05:38:58.751Z,1017.12
2016-12-01T05:40:12.713Z,1017.16
2016-12-01T05:41:26.669Z,1017.19
2016-12-01T05:42:41.082Z,1017.21
2016-12-01T05:43:55.302Z,1017.25
2016-12-01T05:45:09.738Z,1017.23
2016-12-01T05:46:24.259Z,1017.24
2016-12-01T05:47:39.406Z,1017.17
2016-12-01T05:48:54.041Z,1017.16
2016-12-01T05:50:08.626Z,1017.19
2016-12-01T05:51:23.052Z,1017.15
2016-12-01T05:52:37.194Z,1017.13
2016-12-01T05:53:52.607Z,1017.17
2016-12-01T05:55:07.515Z,1017.14
2016-12-01T05:56:22.054Z,1017.12
2016-12-01T05:57:36.636Z,1017.18
2016-12-01T05:58:50.717Z,1017.22
2016-12-01T06:00:04.976Z,1017.2
2016-12-01T06:01:19.607Z,1017.29
2016-12-01T06:02:33.563Z,1017.25
2016-12-01T06:03:47.788Z,1017.27
2016-12-01T06:05:03.103Z,1017.28
2016-12-01T06:06:17.442Z,1017.28
2016-12-01T06:07:31.598Z,1017.33
2016-12-01T06:08:45.876Z,1017.23
2016-12-01T06:10:00.441Z,1017.22
2016-12-01T06:11:15.082Z,1017.21
2016-12-01T06:12:29.389Z,1017.23
2016-12-01T06:13:43.390Z,1017.23
2016-12-01T06:14:57.802Z,1017.23
2016-12-01T06:16:12.270Z,1017.22
2016-12-01T06:18:57.194Z,1017.2
2016-12-01T06:20:12.065Z,1017.12
2016-12-01T06:21:25.938Z,1017.1
2016-12-01T06:22:40.909Z,1017.1
2016-12-01T06:23:55.791Z,1017.09
2016-12-01T06:25:10.485Z,1017.03
2016-12-01T06:26:24.408Z,1017.01
2016-12-01T06:27:38.750Z,1016.93
2016-12-01T06:28:53.245Z,1016.88
2016-12-01T06:30:07.544Z,1016.85
2016-12-01T06:31:21.802Z,1016.84
2016-12-01T06:32:35.925Z,1016.88
2016-12-01T06:33:49.717Z,1016.8
2016-12-01T06:35:18.910Z,1016.78
2016-12-01T06:36:33.989Z,1016.72
2016-12-01T06:37:48.723Z,1016.75
2016-12-01T06:39:02.894Z,1016.72
2016-12-01T06:40:16.887Z,1016.73
2016-12-01T06:41:30.974Z,1016.73
2016-12-01T06:42:48.177Z,1016.76
2016-12-01T06:44:02.166Z,1016.71
2016-12-01T06:45:16.038Z,1016.73
2016-12-01T06:46:30.038Z,1016.78
2016-12-01T06:47:44.194Z,1016.72
2016-12-01T06:48:58.670Z,1016.7
2016-12-01T06:50:13.234Z,1016.69
2016-12-01T06:51:27.493Z,1016.73
2016-12-01T06:52:41.557Z,1016.78
2016-12-01T06:53:55.775Z,1016.77
2016-12-01T06:55:09.848Z,1016.82
2016-12-01T06:56:24.174Z,1016.83
2016-12-01T06:57:38.254Z,1016.82
2016-12-01T06:58:52.395Z,1016.79
2016-12-01T07:00:06.494Z,1016.82
2016-12-01T07:01:20.625Z,1016.79
2016-12-01T07:02:34.872Z,1016.79
2016-12-01T07:03:49.140Z,1016.8
2016-12-01T07:05:03.132Z,1016.85
2016-12-01T07:06:17.110Z,1016.87
2016-12-01T07:07:31.233Z,1016.92
2016-12-01T07:08:45.664Z,1016.89
2016-12-01T07:10:14.467Z,1016.94
2016-12-01T07:11:28.782Z,1016.9
2016-12-01T07:12:43.219Z,1016.86
2016-12-01T07:13:57.293Z,1016.82
2016-12-01T07:15:12.763Z,1016.79
2016-12-01T07:16:26.952Z,1016.85
2016-12-01T07:17:41.538Z,1016.82
2016-12-01T07:18:55.616Z,1016.85
2016-12-01T07:20:15.699Z,1016.79
2016-12-01T07:21:30.004Z,1016.79
2016-12-01T07:22:43.893Z,1016.8
2016-12-01T07:23:58.167Z,1016.84
2016-12-01T07:25:12.428Z,1016.82
2016-12-01T07:26:26.229Z,1016.81
2016-12-01T07:27:40.077Z,1016.84
2016-12-01T07:28:54.792Z,1016.81
2016-12-01T07:30:09.011Z,1016.8
2016-12-01T07:31:23.370Z,1016.77
2016-12-01T07:32:37.929Z,1016.75
2016-12-01T07:33:52.086Z,1016.76
2016-12-01T07:35:06.510Z,1016.74
2016-12-01T07:36:35.954Z,1016.67
2016-12-01T07:37:50.365Z,1016.7
2016-12-01T07:39:04.254Z,1016.69
2016-12-01T07:40:18.668Z,1016.73
2016-12-01T07:41:32.340Z,1016.7
2016-12-01T07:42:46.183Z,1016.78
2016-12-01T07:44:00.621Z,1016.79
2016-12-01T07:45:14.435Z,1016.79
2016-12-01T07:46:28.792Z,1016.73
2016-12-01T07:47:42.964Z,1016.72
2016-12-01T07:48:57.248Z,1016.76
2016-12-01T07:50:11.343Z,1016.73
2016-12-01T07:51:25.067Z,1016.69
2016-12-01T07:52:38.864Z,1016.64
2016-12-01T07:54:07.968Z,1016.65
2016-12-01T07:55:36.600Z,1016.64
2016-12-01T07:56:51.181Z,1016.6
2016-12-01T07:58:05.323Z,1016.62
2016-12-01T07:59:19.770Z,1016.65
2016-12-01T08:00:36.266Z,1016.6
2016-12-01T08:01:50.406Z,1016.62
2016-12-01T08:03:04.897Z,1016.67
2016-12-01T08:05:48.056Z,1016.63
2016-12-01T08:07:01.942Z,1016.64
2016-12-01T08:08:16.594Z,1016.67
2016-12-01T08:09:30.805Z,1016.7
2016-12-01T08:10:45.072Z,1016.73
2016-12-01T08:11:59.787Z,1016.68
2016-12-01T08:13:13.801Z,1016.69
2016-12-01T08:14:42.697Z,1016.67
2016-12-01T08:15:56.818Z,1016.67
2016-12-01T08:17:26.115Z,1016.64
2016-12-01T08:18:39.894Z,1016.63
2016-12-01T08:19:54.165Z,1016.61
2016-12-01T08:21:08.104Z,1016.64
2016-12-01T08:22:22.139Z,1016.58
2016-12-01T08:23:35.930Z,1016.59
2016-12-01T08:24:49.980Z,1016.58
2016-12-01T08:26:04.550Z,1016.56
2016-12-01T08:27:18.519Z,1016.54
2016-12-01T08:28:32.602Z,1016.56
2016-12-01T08:29:46.592Z,1016.55
2016-12-01T08:31:00.652Z,1016.52
2016-12-01T08:32:30.007Z,1016.44
2016-12-01T08:33:44.375Z,1016.45
2016-12-01T08:34:59.009Z,1016.42
2016-12-01T08:36:13.078Z,1016.49
2016-12-01T08:37:27.128Z,1016.41
2016-12-01T08:38:41.909Z,1016.41
2016-12-01T08:39:55.711Z,1016.47
2016-12-01T08:41:10.381Z,1016.52
2016-12-01T08:42:24.749Z,1016.57
2016-12-01T08:43:39.208Z,1016.66
2016-12-01T08:44:53.343Z,1016.7
2016-12-01T08:46:22.013Z,1016.72
2016-12-01T08:47:36.118Z,1016.7
2016-12-01T08:48:50.128Z,1016.66
2016-12-01T08:50:05.386Z,1016.61
2016-12-01T08:51:19.616Z,1016.62
2016-12-01T08:52:33.719Z,1016.63
2016-12-01T08:53:47.656Z,1016.57
2016-12-01T08:55:01.575Z,1016.54
2016-12-01T08:56:15.512Z,1016.55
2016-12-01T08:57:29.259Z,1016.58
2016-12-01T08:58:43.851Z,1016.58
2016-12-01T08:59:58.215Z,1016.55
2016-12-01T09:01:12.571Z,1016.6
2016-12-01T09:02:27.001Z,1016.58
2016-12-01T09:03:41.129Z,1016.57
2016-12-01T09:04:55.597Z,1016.58
2016-12-01T09:06:09.491Z,1016.59
2016-12-01T09:07:23.611Z,1016.57
2016-12-01T09:10:06.606Z,1016.63
2016-12-01T09:11:21.759Z,1016.6
2016-12-01T09:12:35.589Z,1016.53
2016-12-01T09:13:49.663Z,1016.48
2016-12-01T09:15:03.981Z,1016.5
2016-12-01T09:16:18.117Z,1016.46
2016-12-01T09:17:32.376Z,1016.49
2016-12-01T09:18:48.354Z,1016.51
2016-12-01T09:20:02.631Z,1016.53
2016-12-01T09:21:16.750Z,1016.49
2016-12-01T09:22:30.780Z,1016.5
2016-12-01T09:23:44.852Z,1016.53
2016-12-01T09:24:58.927Z,1016.5
2016-12-01T09:26:12.662Z,1016.53
2016-12-01T09:27:26.976Z,1016.58
2016-12-01T09:28:40.903Z,1016.56
2016-12-01T09:29:54.789Z,1016.55
2016-12-01T09:31:09.608Z,1016.55
2016-12-01T09:32:38.215Z,1016.55
2016-12-01T09:33:52.332Z,1016.57
2016-12-01T09:35:06.295Z,1016.58
2016-12-01T09:36:21.009Z,1016.61
2016-12-01T09:37:35.293Z,1016.56
2016-12-01T09:38:49.111Z,1016.53
2016-12-01T09:40:18.348Z,1016.54
2016-12-01T09:41:32.672Z,1016.55
2016-12-01T09:42:46.411Z,1016.57
2016-12-01T09:44:00.713Z,1016.55
2016-12-01T09:45:14.632Z,1016.56
2016-12-01T09:46:28.871Z,1016.52
2016-12-01T09:47:42.910Z,1016.48
2016-12-01T09:48:57.167Z,1016.48
2016-12-01T09:50:11.720Z,1016.39
2016-12-01T09:51:25.657Z,1016.4
2016-12-01T09:52:40.319Z,1016.38
2016-12-01T09:53:54.999Z,1016.36
2016-12-01T09:55:09.380Z,1016.3
2016-12-01T09:56:23.260Z,1016.25
2016-12-01T09:57:37.316Z,1016.15
2016-12-01T09:58:51.234Z,1016.15
2016-12-01T10:00:05.732Z,1016.13
2016-12-01T10:01:19.925Z,1016.11
2016-12-01T10:02:34.353Z,1016.11
2016-12-01T10:03:48.703Z,1016.09
2016-12-01T10:05:03.481Z,1016.04
2016-12-01T10:06:17.449Z,1016.01
2016-12-01T10:07:31.573Z,1016.02
2016-12-01T10:08:45.796Z,1015.94
2016-12-01T10:09:59.534Z,1015.97
2016-12-01T10:11:13.981Z,1015.95
2016-12-01T10:12:27.995Z,1015.94
2016-12-01T10:13:42.088Z,1015.93
2016-12-01T10:14:55.931Z,1015.86
2016-12-01T10:16:09.751Z,1015.78
2016-12-01T10:17:23.684Z,1015.7
2016-12-01T10:18:38.191Z,1015.61
2016-12-01T10:19:52.440Z,1015.61
2016-12-01T10:21:06.722Z,1015.56
2016-12-01T10:22:21.577Z,1015.55
2016-12-01T10:23:35.763Z,1015.45
2016-12-01T10:24:49.479Z,1015.46
2016-12-01T10:26:03.160Z,1015.46
2016-12-01T10:27:17.128Z,1015.53
2016-12-01T10:28:31.793Z,1015.53
2016-12-01T10:29:46.373Z,1015.45
2016-12-01T10:31:00.314Z,1015.45
2016-12-01T10:32:14.554Z,1015.48
2016-12-01T10:33:29.424Z,1015.42
2016-12-01T10:34:43.931Z,1015.44
2016-12-01T10:36:01.258Z,1015.47
2016-12-01T10:37:15.554Z,1015.44
2016-12-01T10:38:29.857Z,1015.47
2016-12-01T10:39:43.814Z,1015.41
2016-12-01T10:40:57.847Z,1015.37
2016-12-01T10:42:12.608Z,1015.33
2016-12-01T10:43:26.689Z,1015.35
2016-12-01T10:44:41.136Z,1015.41
2016-12-01T10:45:55.743Z,1015.48
2016-12-01T10:47:10.145Z,1015.55
2016-12-01T10:48:24.887Z,1015.61
2016-12-01T10:49:39.369Z,1015.66
2016-12-01T10:50:53.876Z,1015.64
2016-12-01T10:52:08.444Z,1015.65
2016-12-01T10:53:22.712Z,1015.58
2016-12-01T10:54:37.011Z,1015.58
2016-12-01T10:55:50.710Z,1015.58
2016-12-01T10:57:04.969Z,1015.61
2016-12-01T10:58:20.028Z,1015.53
2016-12-01T10:59:34.054Z,1015.51
2016-12-01T11:00:48.784Z,1015.57
2016-12-01T11:02:02.457Z,1015.54
2016-12-01T11:03:31.087Z,1015.58
2016-12-01T11:04:45.066Z,1015.59
2016-12-01T11:05:58.816Z,1015.62
2016-12-01T11:07:13.038Z,1015.55
2016-12-01T11:08:27.036Z,1015.53
2016-12-01T11:09:41.410Z,1015.47
2016-12-01T11:10:55.147Z,1015.48
2016-12-01T11:12:09.299Z,1015.46
2016-12-01T11:13:23.346Z,1015.42
2016-12-01T11:14:37.373Z,1015.33
2016-12-01T11:15:51.591Z,1015.18
2016-12-01T11:17:05.507Z,1015.17
2016-12-01T11:18:19.804Z,1015.05
2016-12-01T11:19:34.325Z,1015.09
2016-12-01T11:20:48.872Z,1015.12
2016-12-01T11:22:03.582Z,1015.11
2016-12-01T11:23:18.689Z,1015.1
2016-12-01T11:24:33.356Z,1015.11
2016-12-01T11:25:48.160Z,1015.14
2016-12-01T11:27:07.125Z,1015.06
2016-12-01T11:28:22.890Z,1015.02
2016-12-01T11:29:37.339Z,1015.01
2016-12-01T11:30:52.255Z,1015.02
2016-12-01T11:32:08.205Z,1014.87
2016-12-01T11:33:22.626Z,1014.9
2016-12-01T11:34:36.859Z,1014.9
2016-12-01T11:35:51.129Z,1014.9
2016-12-01T11:37:05.177Z,1014.95
2016-12-01T11:38:20.900Z,1014.91
2016-12-01T11:39:35.386Z,1014.88
2016-12-01T11:40:49.136Z,1014.79
2016-12-01T11:42:03.407Z,1014.79
2016-12-01T11:43:17.881Z,1014.79
2016-12-01T11:44:32.626Z,1014.73
2016-12-01T11:45:47.430Z,1014.62
2016-12-01T11:47:03.091Z,1014.63
2016-12-01T11:48:39.886Z,1014.62
2016-12-01T11:50:17.287Z,1014.65
2016-12-01T11:51:43.258Z,1014.7
2016-12-01T11:53:07.377Z,1014.7
2016-12-01T11:54:50.768Z,1014.69
2016-12-01T11:56:17.834Z,1014.75
2016-12-01T11:57:42.363Z,1014.78
2016-12-01T11:59:05.914Z,1014.75
2016-12-01T12:00:29.421Z,1014.76
2016-12-01T12:01:53.135Z,1014.8
2016-12-01T12:03:30.576Z,1014.76
2016-12-01T12:04:48.746Z,1014.7
2016-12-01T12:06:11.546Z,1014.69
2016-12-01T12:07:32.682Z,1014.71
2016-12-01T12:09:07.401Z,1014.73
2016-12-01T12:10:23.042Z,1014.71
2016-12-01T12:11:39.843Z,1014.71
2016-12-01T12:12:55.471Z,1014.79
2016-12-01T12:14:12.075Z,1014.8
2016-12-01T12:15:25.962Z,1014.77
2016-12-01T12:16:39.876Z,1014.7
2016-12-01T12:17:54.885Z,1014.72
2016-12-01T12:19:10.224Z,1014.68
2016-12-01T12:20:25.074Z,1014.7
2016-12-01T12:21:39.728Z,1014.73
2016-12-01T12:22:53.683Z,1014.74
2016-12-01T12:24:08.524Z,1014.73
2016-12-01T12:25:23.383Z,1014.73
2016-12-01T12:26:37.774Z,1014.68
2016-12-01T12:27:52.198Z,1014.73
2016-12-01T12:29:06.679Z,1014.72
2016-12-01T12:30:21.430Z,1014.67
2016-12-01T12:31:36.261Z,1014.64
2016-12-01T12:32:50.709Z,1014.58
2016-12-01T12:34:04.966Z,1014.55
2016-12-01T12:35:19.515Z,1014.52
2016-12-01T12:36:34.527Z,1014.5
2016-12-01T12:37:49.458Z,1014.53
2016-12-01T12:39:04.428Z,1014.48
2016-12-01T12:40:18.466Z,1014.49
2016-12-01T12:41:34.269Z,1014.47
2016-12-01T12:42:48.522Z,1014.42
2016-12-01T12:44:03.149Z,1014.4
2016-12-01T12:45:17.160Z,1014.41
2016-12-01T12:46:31.096Z,1014.32
2016-12-01T12:49:14.763Z,1014.36
2016-12-01T12:50:29.352Z,1014.37
2016-12-01T12:51:43.724Z,1014.37
2016-12-01T12:52:57.988Z,1014.37
2016-12-01T12:54:12.636Z,1014.4
2016-12-01T12:55:27.505Z,1014.35
2016-12-01T12:56:41.368Z,1014.33
2016-12-01T12:57:55.125Z,1014.28
2016-12-01T12:59:09.142Z,1014.24
2016-12-01T13:00:23.570Z,1014.23
2016-12-01T13:01:38.167Z,1014.22
2016-12-01T13:02:52.175Z,1014.19
2016-12-01T13:04:06.035Z,1014.16
2016-12-01T13:05:20.830Z,1014.2
2016-12-01T13:06:35.067Z,1014.12
2016-12-01T13:07:49.963Z,1014.09
2016-12-01T13:09:04.241Z,1014.13
2016-12-01T13:10:18.263Z,1014.17
2016-12-01T13:11:32.097Z,1014.2
2016-12-01T13:12:46.191Z,1014.17
2016-12-01T13:14:03.032Z,1014.2
2016-12-01T13:15:17.326Z,1014.13
2016-12-01T13:16:31.665Z,1014.16
2016-12-01T13:17:45.924Z,1014.16
2016-12-01T13:19:15.151Z,1014.18
2016-12-01T13:20:28.887Z,1014.14
2016-12-01T13:21:43.076Z,1014.11
2016-12-01T13:22:57.173Z,1014.13
2016-12-01T13:24:11.196Z,1014.12
2016-12-01T13:25:25.227Z,1014.12
2016-12-01T13:26:39.455Z,1014.12
2016-12-01T13:27:54.034Z,1014.16
2016-12-01T13:29:08.464Z,1014.09
2016-12-01T13:30:22.425Z,1014.15
2016-12-01T13:31:36.184Z,1014.09
2016-12-01T13:32:50.590Z,1014.13
2016-12-01T13:34:04.662Z,1014.11
2016-12-01T13:35:19.250Z,1014.05
2016-12-01T13:36:33.969Z,1013.92
2016-12-01T13:37:48.202Z,1013.87
2016-12-01T13:39:02.428Z,1013.82
2016-12-01T13:40:16.420Z,1013.82
2016-12-01T13:41:31.279Z,1013.82
2016-12-01T13:43:00.230Z,1013.75
2016-12-01T13:44:15.078Z,1013.75
2016-12-01T13:45:29.228Z,1013.73
2016-12-01T13:46:43.348Z,1013.76
2016-12-01T13:47:58.084Z,1013.78
2016-12-01T13:49:12.083Z,1013.8
2016-12-01T13:50:26.396Z,1013.79
2016-12-01T13:51:41.337Z,1013.79
2016-12-01T13:52:55.287Z,1013.75
2016-12-01T13:54:10.083Z,1013.72
2016-12-01T13:55:24.152Z,1013.72
2016-12-01T13:56:38.220Z,1013.67
2016-12-01T13:57:52.778Z,1013.74
2016-12-01T13:59:07.059Z,1013.67
2016-12-01T14:00:21.265Z,1013.68
2016-12-01T14:01:35.106Z,1013.7
2016-12-01T14:02:49.232Z,1013.7
2016-12-01T14:04:03.344Z,1013.68
2016-12-01T14:05:17.234Z,1013.63
2016-12-01T14:06:31.561Z,1013.68
2016-12-01T14:07:45.923Z,1013.57
2016-12-01T14:09:00.072Z,1013.64
2016-12-01T14:10:14.397Z,1013.65
2016-12-01T14:11:28.091Z,1013.62
2016-12-01T14:12:42.371Z,1013.63
2016-12-01T14:13:56.938Z,1013.66
2016-12-01T14:15:11.000Z,1013.59
2016-12-01T14:16:25.227Z,1013.62
2016-12-01T14:17:39.226Z,1013.6
2016-12-01T14:18:53.877Z,1013.56
2016-12-01T14:20:07.968Z,1013.56
2016-12-01T14:21:22.147Z,1013.61
2016-12-01T14:22:36.588Z,1013.61
2016-12-01T14:23:50.385Z,1013.54
2016-12-01T14:25:04.743Z,1013.53
2016-12-01T14:26:18.683Z,1013.49
2016-12-01T14:27:33.144Z,1013.43
2016-12-01T14:29:01.881Z,1013.43
2016-12-01T14:30:15.577Z,1013.42
2016-12-01T14:31:32.056Z,1013.46
2016-12-01T14:32:46.334Z,1013.47
2016-12-01T14:34:00.677Z,1013.48
2016-12-01T14:35:14.667Z,1013.44
2016-12-01T14:36:28.769Z,1013.41
2016-12-01T14:37:43.289Z,1013.41
2016-12-01T14:38:57.230Z,1013.38
2016-12-01T14:40:11.869Z,1013.34
2016-12-01T14:41:26.361Z,1013.3
2016-12-01T14:42:40.621Z,1013.31
2016-12-01T14:43:55.143Z,1013.27
2016-12-01T14:45:09.683Z,1013.25
2016-12-01T14:46:24.129Z,1013.2
2016-12-01T14:47:38.400Z,1013.12
2016-12-01T14:48:52.653Z,1013.17
2016-12-01T14:50:07.374Z,1013.19
2016-12-01T14:51:21.344Z,1013.21
2016-12-01T14:52:35.510Z,1013.19
2016-12-01T14:53:49.734Z,1013.12
2016-12-01T14:55:04.472Z,1013.14
2016-12-01T14:56:18.906Z,1013.14
2016-12-01T14:57:33.121Z,1013.17
2016-12-01T14:58:47.095Z,1013.11
2016-12-01T15:00:01.017Z,1013.22
2016-12-01T15:01:15.118Z,1013.21
2016-12-01T15:02:29.172Z,1013.19
2016-12-01T15:03:43.796Z,1013.24
2016-12-01T15:04:58.131Z,1013.21
2016-12-01T15:06:12.226Z,1013.19
2016-12-01T15:07:27.163Z,1013.21
2016-12-01T15:08:41.245Z,1013.15
2016-12-01T15:09:56.211Z,1013.13
2016-12-01T15:11:10.350Z,1013.14
2016-12-01T15:12:24.470Z,1013.07
2016-12-01T15:13:38.258Z,1013.1
2016-12-01T15:14:52.763Z,1013.11
2016-12-01T15:16:08.700Z,1013.09
2016-12-01T15:17:22.874Z,1013.12
2016-12-01T15:18:37.404Z,1013.1
2016-12-01T15:19:51.766Z,1013.12
2016-12-01T15:21:06.445Z,1013.18
2016-12-01T15:22:21.108Z,1013.18
2016-12-01T15:23:36.287Z,1013.19
2016-12-01T15:24:51.157Z,1013.2